ADDS METAR Data INFO
IDs: Format: Raw Decoded Include TAF

Data at: 2050 UTC 24 Jun 2018

KAPY 242035Z AUTO 15012G22KT 10SM SCT055 36/18 A2978 RMK AO2 T03620190
KAPY 242015Z AUTO 14009G20KT 10SM CLR 36/18 A2979 RMK AO2
KAPY 241955Z AUTO 13013G20KT 110V170 10SM SCT050 35/19 A2979 RMK AO2 T03560192
KAPY 241935Z AUTO 12013G26KT 10SM SCT050 35/20 A2980 RMK AO2 T03550201
KAPY 241915Z AUTO 14012G26KT 10SM CLR 35/20 A2980 RMK AO2 T03550198
KAPY 241855Z AUTO 13015G22KT 10SM CLR A2980 RMK AO2
KAPY 241835Z AUTO 12013G19KT 10SM CLR A2980 RMK AO2
KAPY 241815Z AUTO 14014G21KT 10SM CLR A2980 RMK AO2
KAPY 241755Z AUTO 13011G20KT 090V160 10SM CLR A2980 RMK AO2
KAPY 241735Z AUTO 14009G19KT 10SM CLR 33/19 A2981 RMK AO2
KAPY 241715Z AUTO 16010G18KT 10SM CLR 33/19 A2981 RMK AO2 T03350193
KAPY 241655Z AUTO 15010G16KT 10SM CLR 32/19 A2980 RMK AO2 T03300196
KAPY 241635Z AUTO 15006G16KT 10SM CLR 32/19 A2980 RMK AO2 T03250194
KAPY 241615Z AUTO 15010G15KT 120V180 10SM CLR 31/20 A2981 RMK AO2 T03160198
KAPY 241555Z AUTO 16006KT 10SM CLR 31/20 A2981 RMK AO2 T03110207
KAPY 241535Z AUTO 14007KT 10SM CLR 30/21 A2980 RMK AO2 T03050211
KAPY 241515Z AUTO 16009G16KT 10SM CLR 30/21 A2981 RMK AO2 T02980210
KAPY 241455Z AUTO 16011G15KT 10SM CLR 29/21 A2981 RMK AO2 T02950212
KAPY 241435Z AUTO 14010G18KT 10SM CLR 28/21 A2982 RMK AO2 T02900212
KAPY 241415Z AUTO 16011G19KT 10SM CLR 28/21 A2981 RMK AO2 LTG DSNT SE T02880212
KAPY 241355Z AUTO 14011G18KT 10SM SCT002 28/21 A2980 RMK AO2 T02810215
KAPY 241335Z AUTO 16013G19KT 10SM SCT002 27/21 A2980 RMK AO2 T02750217
KAPY 241315Z AUTO 15011G15KT 10SM CLR 27/22 A2980 RMK AO2 T02710220
KAPY 241255Z AUTO 15009G18KT 10SM CLR 26/22 A2979 RMK AO2 T02650222
KAPY 241235Z AUTO 14010G19KT 10SM CLR 26/22 A2979 RMK AO2 LTG DSNT SE T02610222
KAPY 241215Z AUTO 14009G14KT 10SM CLR 25/22 A2980 RMK AO2 T02570222
KAPY 241155Z AUTO 15009G15KT 10SM CLR 25/22 A2980 RMK AO2 T02560222
KAPY 241135Z AUTO 14009G16KT 10SM CLR 25/22 A2979 RMK AO2 T02570223
KAPY 241115Z AUTO 15009G15KT 10SM CLR 25/22 A2979 RMK AO2 T02570225
KAPY 241055Z AUTO 15013G20KT 10SM CLR 26/22 A2979 RMK AO2 T02580225
KAPY 241035Z AUTO 15011G17KT 10SM CLR 26/22 A2979 RMK AO2 T02600225
KAPY 241015Z AUTO 14011G19KT 10SM SCT014 26/22 A2979 RMK AO2 T02600225
KAPY 240955Z AUTO 14010G19KT 10SM SCT014 26/22 A2979 RMK AO2 T02610225
KAPY 240935Z AUTO 15012G18KT 10SM SCT016 26/22 A2979 RMK AO2 T02610225
KAPY 240915Z AUTO 14010G17KT 10SM SCT016 26/22 A2979 RMK AO2 T02620225
KAPY 240855Z AUTO 15011G20KT 10SM CLR 26/22 A2979 RMK AO2 T02630223
KAPY 240835Z AUTO 14012G19KT 10SM SCT018 26/22 A2980 RMK AO2 T02650223
KAPY 240815Z AUTO 15011G15KT 10SM CLR 26/22 A2980 RMK AO2 T02650222
KAPY 240755Z AUTO 14008G15KT 10SM CLR 26/22 A2980 RMK AO2 T02660223
KAPY 240735Z AUTO 13011G19KT 10SM CLR 26/22 A2980 RMK AO2 T02670225
KAPY 240715Z AUTO 13010G19KT 10SM SCT017 26/22 A2980 RMK AO2 T02680225
KAPY 240655Z AUTO 14012G18KT 10SM SCT019 27/22 A2980 RMK AO2 T02700225
KAPY 240635Z AUTO 14012G19KT 10SM SCT019 27/22 A2981 RMK AO2 T02710225
KAPY 240615Z AUTO 13007G18KT 7SM SCT019 27/22 A2980 RMK AO2 T02730227
KAPY 240555Z AUTO 14010G18KT 7SM CLR 27/22 A2980 RMK AO2 T02750228
KAPY 240535Z AUTO 13009G18KT 110V170 7SM CLR 27/22 A2980 RMK AO2 T02760227
KAPY 240515Z AUTO 14011G16KT 10SM CLR 27/22 A2979 RMK AO2 T02800226
KAPY 240455Z AUTO 13011G20KT 7SM CLR 28/22 A2979 RMK AO2 T02820223
KAPY 240435Z AUTO 14009G21KT 10SM CLR 28/22 A2978 RMK AO2 T02850222
KAPY 240415Z AUTO 14016G25KT 10SM CLR 28/22 A2978 RMK AO2 T02880223
KAPY 240355Z AUTO 14012G19KT 10SM CLR 29/22 A2977 RMK AO2 T02920224
KAPY 240335Z AUTO 14012G16KT 10SM CLR 29/22 A2976 RMK AO2 T02960226
KAPY 240315Z AUTO 13010G16KT 10SM CLR 30/22 A2975 RMK AO2 T03010227
KAPY 240255Z AUTO 14010G17KT 10SM CLR 30/22 A2974 RMK AO2 T03070229
KAPY 240235Z AUTO 13008G16KT 10SM CLR 31/22 A2974 RMK AO2 T03110230
KAPY 240215Z AUTO 14009G17KT 10SM CLR 31/22 A2972 RMK AO2 T03150228
KAPY 240155Z AUTO 14011G18KT 10SM CLR 32/22 A2972 RMK AO2 T03200228
KAPY 240135Z AUTO 12009KT 10SM CLR 32/22 A2971 RMK AO2 T03260224
KAPY 240115Z AUTO 13013G19KT 10SM CLR 33/22 A2970 RMK AO2 T03340225
KAPY 240055Z AUTO 13014G20KT 10SM CLR 34/22 A2969 RMK AO2 T03410223
KAPY 240035Z AUTO 13010G17KT 10SM CLR 34/21 A2968 RMK AO2 T03460217
KAPY 240015Z AUTO 13005G14KT 10SM CLR 35/20 A2969 RMK AO2 T03510205
KAPY 232355Z AUTO 14009G16KT 10SM CLR 35/20 A2968 RMK AO2 T03510197
KAPY 232335Z AUTO 15010G19KT 10SM CLR 35/19 A2968 RMK AO2 T03540193
KAPY 232315Z AUTO 14008G20KT 10SM CLR 35/19 A2969 RMK AO2 T03560192
KAPY 232255Z AUTO 15011G19KT 10SM CLR 36/19 A2969 RMK AO2 T03640194
KAPY 232235Z AUTO 13010G20KT 10SM CLR 37/18 A2969 RMK AO2
KAPY 232215Z AUTO 16010G20KT 10SM CLR 37/18 A2969 RMK AO2 T03720190
KAPY 232155Z AUTO 15014G21KT 10SM CLR A2970 RMK AO2
KAPY 232135Z AUTO 14011G20KT 10SM CLR 37/19 A2970 RMK AO2
KAPY 232115Z AUTO 16013G19KT 10SM CLR 37/19 A2971 RMK AO2 T03770195
KAPY 232055Z AUTO 16013G19KT 10SM CLR 37/18 A2971 RMK AO2 T03750191
KAPY 232035Z AUTO 15013G19KT 10SM CLR 37/20 A2972 RMK AO2 T03730198
KAPY 232015Z AUTO 14011G18KT 10SM CLR 36/20 A2973 RMK AO2 T03680200
KAPY 231955Z AUTO 14010G17KT 110V170 10SM CLR 36/20 A2974 RMK AO2 T03680201
KAPY 231935Z AUTO 16013G18KT 10SM CLR 36/20 A2974 RMK AO2 T03630198
KAPY 231915Z AUTO 17012G20KT 10SM CLR 36/20 A2975 RMK AO2 T03630199
KAPY 231855Z AUTO 14013G18KT 10SM CLR A2976 RMK AO2
KAPY 231835Z AUTO 17013G17KT 10SM CLR A2977 RMK AO2
KAPY 231815Z AUTO 15010G19KT 10SM CLR A2978 RMK AO2
KAPY 231755Z AUTO 16011G15KT 10SM CLR 34/21 A2978 RMK AO2
KAPY 231735Z AUTO 15009G15KT 10SM CLR 33/22 A2979 RMK AO2 T03380220
KAPY 231715Z AUTO 18009G16KT 10SM CLR 33/22 A2979 RMK AO2 T03320222
KAPY 231655Z AUTO 15007KT 10SM SCT031 32/22 A2980 RMK AO2 T03250226
KAPY 231635Z AUTO 15010G16KT 7SM SCT029 32/22 A2980 RMK AO2 T03200225
KAPY 231615Z AUTO 17011G17KT 10SM SCT024 31/22 A2981 RMK AO2 T03110226
KAPY 231555Z AUTO 14007G16KT 10SM SCT022 30/22 A2981 RMK AO2 T03080229
KAPY 231535Z AUTO 16011G15KT 10SM BKN019 30/22 A2981 RMK AO2 T02990230
KAPY 231515Z AUTO 15011G17KT 10SM BKN015 28/22 A2982 RMK AO2 T02880230
KAPY 231455Z AUTO 14009G14KT 7SM OVC015 27/23 A2982 RMK AO2 T02780230
KAPY 231435Z AUTO 16008G14KT 7SM OVC013 27/23 A2983 RMK AO2 T02710232
KAPY 231415Z AUTO 14009KT 7SM OVC011 26/23 A2983 RMK AO2 T02690234
KAPY 231355Z AUTO 15008KT 7SM OVC011 26/23 A2983 RMK AO2 T02650235
KAPY 231335Z AUTO 14005KT 7SM OVC009 26/23 A2983 RMK AO2 T02610236
KAPY 231315Z AUTO 15007KT 7SM OVC009 26/23 A2982 RMK AO2 T02580237
KAPY 231255Z AUTO 15005KT 7SM OVC009 25/23 A2981 RMK AO2 T02560239
KAPY 231235Z AUTO 14008G15KT 7SM OVC009 25/23 A2981 RMK AO2 T02550240
KAPY 231215Z AUTO 14010G15KT 7SM OVC009 25/23 A2980 RMK AO2 T02510240
KAPY 231155Z AUTO 14006KT 7SM BKN009 25/23 A2979 RMK AO2 T02500240
KAPY 231135Z AUTO 14007KT 7SM BKN009 25/23 A2979 RMK AO2 T02500240
KAPY 231115Z AUTO 13006KT 7SM OVC009 25/23 A2979 RMK AO2 T02510240
KAPY 231055Z AUTO 14006KT 7SM OVC011 25/23 A2979 RMK AO2 T02520240
KAPY 231035Z AUTO 13006KT 7SM BKN011 25/23 A2979 RMK AO2 T02520239
KAPY 231015Z AUTO 14009KT 10SM BKN011 25/23 A2979 RMK AO2 T02540240
KAPY 230955Z AUTO 14009KT 10SM OVC011 25/23 A2979 RMK AO2 T02550240
KAPY 230935Z AUTO 14007G14KT 10SM SCT011 25/23 A2980 RMK AO2 T02550240
KAPY 230915Z AUTO 14008KT 10SM SCT011 25/23 A2980 RMK AO2 T02560241
KAPY 230855Z AUTO 14009G14KT 10SM BKN011 25/23 A2980 RMK AO2 T02570241